createdAt,value
2022-09-28T00:00:11.627Z,96795.15
2022-09-28T00:01:36.260Z,96795.29
2022-09-28T00:02:38.006Z,96790.58
2022-09-28T00:03:39.853Z,96790.37
2022-09-28T00:04:41.474Z,96785.53
2022-09-28T00:05:43.050Z,96785.13
2022-09-28T00:06:44.671Z,96782.55
2022-09-28T00:07:46.873Z,96783.27
2022-09-28T00:08:51.418Z,96781.58
2022-09-28T00:09:53.213Z,96782.45
2022-09-28T00:10:56.136Z,96783.51
2022-09-28T00:11:58.137Z,96782.83
2022-09-28T00:13:01.391Z,96782.31
2022-09-28T00:14:03.703Z,96785.67
2022-09-28T00:15:05.677Z,96780.08
2022-09-28T00:16:11.388Z,96780.02
2022-09-28T00:17:13.125Z,96776.21
2022-09-28T00:18:14.995Z,96773.86
2022-09-28T00:19:16.688Z,96778.39
2022-09-28T00:20:19.439Z,96782.30
2022-09-28T00:21:27.392Z,96780.80
2022-09-28T00:22:29.015Z,96781.16
2022-09-28T00:23:30.638Z,96780.11
2022-09-28T00:24:32.502Z,96777.23
2022-09-28T00:25:34.146Z,96777.97
2022-09-28T00:26:35.855Z,96774.19
2022-09-28T00:27:37.472Z,96774.84
2022-09-28T00:28:39.080Z,96774.02
2022-09-28T00:29:41.623Z,96775.52
2022-09-28T00:30:43.230Z,96774.67
2022-09-28T00:31:45.789Z,96776.34
2022-09-28T00:32:48.267Z,96778.17
2022-09-28T00:33:56.760Z,96779.16
2022-09-28T00:34:58.885Z,96775.80
2022-09-28T00:36:01.636Z,96779.36
2022-09-28T00:37:06.298Z,96782.85
2022-09-28T00:38:09.319Z,96780.10
2022-09-28T00:39:13.860Z,96779.30
2022-09-28T00:40:18.440Z,96780.82
2022-09-28T00:41:20.882Z,96780.08
2022-09-28T00:42:27.990Z,96778.46
2022-09-28T00:43:29.975Z,96781.02
2022-09-28T00:44:38.668Z,96779.04
2022-09-28T00:45:41.465Z,96775.01
2022-09-28T00:46:44.251Z,96781.34
2022-09-28T00:47:55.365Z,96778.63
2022-09-28T00:49:08.748Z,96779.98
2022-09-28T00:50:30.103Z,96776.21
2022-09-28T00:51:42.396Z,96776.64
2022-09-28T00:53:01.878Z,96776.34
2022-09-28T00:54:07.693Z,96782.30
2022-09-28T00:55:16.555Z,96784.68
2022-09-28T00:56:24.758Z,96782.39
2022-09-28T00:57:32.304Z,96783.21
2022-09-28T00:58:48.657Z,96784.52
2022-09-28T00:59:55.879Z,96784.08
2022-09-28T01:01:01.230Z,96785.39
2022-09-28T01:02:07.083Z,96786.84
2022-09-28T01:03:14.268Z,96786.38
2022-09-28T01:04:17.495Z,96788.31
2022-09-28T01:05:22.181Z,96785.23
2022-09-28T01:06:29.021Z,96783.73
2022-09-28T01:07:34.995Z,96784.73
2022-09-28T01:08:40.268Z,96785.77
2022-09-28T01:09:45.822Z,96783.52
2022-09-28T01:10:48.981Z,96781.73
2022-09-28T01:11:52.107Z,96780.59
2022-09-28T01:12:55.623Z,96778.99
2022-09-28T01:13:58.537Z,96777.28
2022-09-28T01:15:02.085Z,96779.94
2022-09-28T01:16:23.409Z,96778.88
2022-09-28T01:17:39.818Z,96776.05
2022-09-28T01:19:07.176Z,96775.96
2022-09-28T01:20:26.746Z,96772.23
2022-09-28T01:21:28.654Z,96770.86
2022-09-28T01:23:19.604Z,96769.31
2022-09-28T01:24:40.783Z,96769.05
2022-09-28T01:25:59.502Z,96770.15
2022-09-28T01:27:20.714Z,96773.98
2022-09-28T01:28:27.992Z,96772.13
2022-09-28T01:29:49.510Z,96771.52
2022-09-28T01:30:57.991Z,96770.83
2022-09-28T01:32:22.380Z,96764.98
2022-09-28T01:33:37.075Z,96764.89
2022-09-28T01:34:52.581Z,96767.14
2022-09-28T01:36:02.606Z,96767.36
2022-09-28T01:37:13.094Z,96769.82
2022-09-28T01:38:19.933Z,96764.98
2022-09-28T01:39:34.878Z,96766.48
2022-09-28T01:40:37.738Z,96769.92
2022-09-28T01:41:42.446Z,96764.77
2022-09-28T01:42:48.616Z,96765.77
2022-09-28T01:43:56.074Z,96767.84
2022-09-28T01:45:13.085Z,96767.20
2022-09-28T01:46:25.230Z,96767.10
2022-09-28T01:47:33.873Z,96767.85
2022-09-28T01:48:42.741Z,96767.65
2022-09-28T01:49:52.289Z,96768.11
2022-09-28T01:51:00.693Z,96769.62
2022-09-28T01:52:16.466Z,96769.90
2022-09-28T01:53:28.751Z,96765.21
2022-09-28T01:54:51.960Z,96763.41
2022-09-28T01:56:11.651Z,96767.77
2022-09-28T01:57:21.633Z,96766.09
2022-09-28T01:58:36.226Z,96766.84
2022-09-28T01:59:46.365Z,96766.19
2022-09-28T02:00:58.139Z,96765.29
2022-09-28T02:02:08.704Z,96768.73
2022-09-28T02:03:42.223Z,96764.77
2022-09-28T02:04:58.583Z,96767.88
2022-09-28T02:06:16.319Z,96768.80
2022-09-28T02:07:39.430Z,96768.66
2022-09-28T02:08:56.051Z,96773.55
2022-09-28T02:10:13.332Z,96772.36
2022-09-28T02:11:19.489Z,96776.09
2022-09-28T02:12:32.933Z,96779.05
2022-09-28T02:13:48.142Z,96777.88
2022-09-28T02:14:59.539Z,96776.04
2022-09-28T02:16:18.690Z,96778.35
2022-09-28T02:17:20.982Z,96775.11
2022-09-28T02:18:23.225Z,96777.05
2022-09-28T02:19:32.285Z,96777.21
2022-09-28T02:20:38.275Z,96777.43
2022-09-28T02:22:12.618Z,96776.98
2022-09-28T02:23:16.210Z,96771.78
2022-09-28T02:24:27.210Z,96773.49
2022-09-28T02:25:39.578Z,96772.16
2022-09-28T02:26:47.874Z,96771.48
2022-09-28T02:28:05.695Z,96776.09
2022-09-28T02:29:08.255Z,96775.13
2022-09-28T02:30:10.632Z,96772.91
2022-09-28T02:31:12.518Z,96776.40
2022-09-28T02:32:17.026Z,96776.21
2022-09-28T02:33:41.172Z,96774.80
2022-09-28T02:34:42.999Z,96777.86
2022-09-28T02:35:45.061Z,96780.95
2022-09-28T02:36:47.147Z,96776.56
2022-09-28T02:37:50.159Z,96776.14
2022-09-28T02:38:53.072Z,96776.08
2022-09-28T02:39:54.745Z,96777.14
2022-09-28T02:41:20.907Z,96778.52
2022-09-28T02:42:39.562Z,96776.39
2022-09-28T02:44:06.278Z,96777.43
2022-09-28T02:45:22.057Z,96778.67
2022-09-28T02:46:42.632Z,96782.96
2022-09-28T02:48:41.298Z,96784.39
2022-09-28T02:50:07.011Z,96781.25
2022-09-28T02:51:41.080Z,96781.38
2022-09-28T02:53:20.094Z,96779.55
2022-09-28T02:54:49.852Z,96773.98
2022-09-28T02:56:16.546Z,96774.98
2022-09-28T02:57:42.217Z,96773.55
2022-09-28T02:59:13.063Z,96775.23
2022-09-28T03:00:22.707Z,96774.87
2022-09-28T03:01:30.560Z,96776.50
2022-09-28T03:02:44.293Z,96778.89
2022-09-28T03:03:55.434Z,96777.75
2022-09-28T03:05:13.378Z,96780.35
2022-09-28T03:06:26.621Z,96783.44
2022-09-28T03:07:41.731Z,96783.76
2022-09-28T03:09:02.313Z,96784.73
2022-09-28T03:10:21.969Z,96788.08
2022-09-28T03:11:36.438Z,96790.63
2022-09-28T03:12:39.722Z,96795.35
2022-09-28T03:13:42.562Z,96794.23
2022-09-28T03:14:45.596Z,96796.22
2022-09-28T03:15:49.026Z,96793.66
2022-09-28T03:16:52.657Z,96797.83
2022-09-28T03:17:54.786Z,96796.70
2022-09-28T03:18:56.487Z,96796.41
2022-09-28T03:19:58.305Z,96801.16
2022-09-28T03:21:01.638Z,96800.49
2022-09-28T03:22:05.623Z,96803.52
2022-09-28T03:23:23.675Z,96803.94
2022-09-28T03:24:26.880Z,96801.79
2022-09-28T03:25:28.744Z,96803.11
2022-09-28T03:26:30.570Z,96803.08
2022-09-28T03:27:32.484Z,96805.98
2022-09-28T03:28:36.207Z,96806.11
2022-09-28T03:29:40.483Z,96806.20
2022-09-28T03:30:43.441Z,96805.87
2022-09-28T03:31:45.331Z,96806.20
2022-09-28T03:32:47.209Z,96807.50
2022-09-28T03:33:48.937Z,96805.47
2022-09-28T03:34:50.684Z,96808.02
2022-09-28T03:35:52.349Z,96806.07
2022-09-28T03:36:54.060Z,96807.61
2022-09-28T03:37:57.120Z,96802.38
2022-09-28T03:38:59.819Z,96802.11
2022-09-28T03:40:02.072Z,96800.23
2022-09-28T03:41:04.240Z,96801.17
2022-09-28T03:42:09.169Z,96802.92
2022-09-28T03:43:13.294Z,96799.02
2022-09-28T03:44:15.339Z,96795.64
2022-09-28T03:45:17.042Z,96798.20
2022-09-28T03:46:20.011Z,96800.70
2022-09-28T03:47:24.419Z,96802.90
2022-09-28T03:48:32.386Z,96801.98
2022-09-28T03:49:35.471Z,96801.00
2022-09-28T03:50:37.233Z,96804.20
2022-09-28T03:51:39.004Z,96805.92
2022-09-28T03:52:41.022Z,96805.75
2022-09-28T03:53:43.812Z,96803.03
2022-09-28T03:54:49.255Z,96804.81
2022-09-28T03:55:53.239Z,96803.92
2022-09-28T03:56:54.973Z,96798.61
2022-09-28T03:57:56.691Z,96799.69
2022-09-28T03:58:58.380Z,96802.46
2022-09-28T04:00:00.977Z,96800.86
2022-09-28T04:01:16.629Z,96800.38
2022-09-28T04:02:19.588Z,96801.34
2022-09-28T04:03:21.286Z,96801.23
2022-09-28T04:04:24.345Z,96801.15
2022-09-28T04:05:25.992Z,96800.98
2022-09-28T04:06:27.944Z,96801.38
2022-09-28T04:07:31.271Z,96799.88
2022-09-28T04:08:33.705Z,96804.11
2022-09-28T04:09:35.319Z,96801.68
2022-09-28T04:10:37.065Z,96802.52
2022-09-28T04:11:59.765Z,96799.20
2022-09-28T04:13:00.260Z,96802.91
2022-09-28T04:14:02.055Z,96800.64
2022-09-28T04:15:05.646Z,96805.05
2022-09-28T04:16:07.489Z,96803.67
2022-09-28T04:17:10.160Z,96808.80
2022-09-28T04:18:13.518Z,96808.16
2022-09-28T04:19:33.822Z,96808.33
2022-09-28T04:21:06.765Z,96808.84
2022-09-28T04:22:12.419Z,96809.79
2022-09-28T04:23:15.809Z,96812.86
2022-09-28T04:24:20.230Z,96812.45
2022-09-28T04:25:22.278Z,96808.07
2022-09-28T04:26:26.015Z,96809.40
2022-09-28T04:27:47.068Z,96810.15
2022-09-28T04:29:07.721Z,96805.24
2022-09-28T04:30:11.182Z,96804.27
2022-09-28T04:31:20.387Z,96803.46
2022-09-28T04:32:22.402Z,96802.17
2022-09-28T04:33:25.680Z,96799.70
2022-09-28T04:34:31.887Z,96800.26
2022-09-28T04:35:36.980Z,96797.55
2022-09-28T04:36:38.629Z,96794.95
2022-09-28T04:37:40.409Z,96791.64
2022-09-28T04:38:52.787Z,96796.59
2022-09-28T04:39:55.975Z,96797.10
2022-09-28T04:40:57.694Z,96793.27
2022-09-28T04:41:59.899Z,96789.98
2022-09-28T04:43:02.316Z,96790.48
2022-09-28T04:44:05.130Z,96791.49
2022-09-28T04:45:07.453Z,96791.46
2022-09-28T04:46:12.898Z,96789.48
2022-09-28T04:47:25.696Z,96792.86
2022-09-28T04:48:28.334Z,96790.86
2022-09-28T04:50:13.574Z,96797.89
2022-09-28T04:51:35.177Z,96798.55
2022-09-28T04:52:37.608Z,96798.98
2022-09-28T04:53:39.437Z,96800.59
2022-09-28T04:54:41.110Z,96802.24
2022-09-28T04:55:43.157Z,96802.92
2022-09-28T04:56:45.142Z,96803.42
2022-09-28T04:57:47.401Z,96806.01
2022-09-28T04:58:52.752Z,96802.20
2022-09-28T04:59:57.350Z,96806.88
2022-09-28T05:01:03.047Z,96805.38
2022-09-28T05:02:30.634Z,96805.28
2022-09-28T05:03:58.598Z,96805.60
2022-09-28T05:05:12.644Z,96808.41
2022-09-28T05:07:10.454Z,96804.98
2022-09-28T05:08:13.075Z,96807.10
2022-09-28T05:09:15.263Z,96812.33
2022-09-28T05:10:18.642Z,96811.02
2022-09-28T05:11:21.623Z,96809.43
2022-09-28T05:12:24.253Z,96807.23
2022-09-28T05:13:27.123Z,96810.52
2022-09-28T05:14:28.824Z,96807.36
2022-09-28T05:15:31.014Z,96806.10
2022-09-28T05:16:33.951Z,96808.16
2022-09-28T05:17:53.968Z,96812.73
2022-09-28T05:19:16.127Z,96816.54
2022-09-28T05:20:17.783Z,96815.48
2022-09-28T05:21:20.077Z,96816.02
2022-09-28T05:22:21.762Z,96818.66
2022-09-28T05:23:23.426Z,96821.10
2022-09-28T05:24:31.894Z,96824.71
2022-09-28T05:25:34.064Z,96819.84
2022-09-28T05:26:41.529Z,96824.23
2022-09-28T05:27:44.865Z,96824.13
2022-09-28T05:29:03.246Z,96821.52
2022-09-28T05:30:24.224Z,96821.84
2022-09-28T05:31:56.372Z,96818.07
2022-09-28T05:33:14.335Z,96820.18
2022-09-28T05:34:19.184Z,96818.05
2022-09-28T05:35:21.105Z,96821.52
2022-09-28T05:36:24.601Z,96817.23
2022-09-28T05:37:26.241Z,96816.91
2022-09-28T05:38:28.393Z,96814.36
2022-09-28T05:39:31.048Z,96815.45
2022-09-28T05:40:32.975Z,96816.75
2022-09-28T05:41:34.758Z,96815.64
2022-09-28T05:42:36.738Z,96814.31
2022-09-28T05:43:38.816Z,96811.72
2022-09-28T05:44:40.657Z,96814.24
2022-09-28T05:45:42.665Z,96814.41
2022-09-28T05:46:44.383Z,96812.17
2022-09-28T05:47:46.909Z,96816.79
2022-09-28T05:48:54.293Z,96813.84
2022-09-28T05:49:56.422Z,96820.36
2022-09-28T05:50:58.818Z,96818.19
2022-09-28T05:52:01.463Z,96820.11
2022-09-28T05:53:06.707Z,96822.81
2022-09-28T05:54:09.143Z,96819.38
2022-09-28T05:55:15.778Z,96821.17
2022-09-28T05:56:18.024Z,96820.04
2022-09-28T05:57:20.204Z,96820.00
2022-09-28T05:58:21.859Z,96817.89
2022-09-28T05:59:23.516Z,96815.89
2022-09-28T06:00:26.737Z,96816.58
2022-09-28T06:01:29.405Z,96815.85
2022-09-28T06:02:33.161Z,96818.35
2022-09-28T06:03:34.891Z,96813.64
2022-09-28T06:04:36.632Z,96815.05
2022-09-28T06:05:39.664Z,96815.17
2022-09-28T06:06:41.438Z,96814.19
2022-09-28T06:07:43.495Z,96817.27
2022-09-28T06:08:46.343Z,96818.76
2022-09-28T06:10:08.725Z,96818.96
2022-09-28T06:11:16.294Z,96816.80
2022-09-28T06:12:18.324Z,96812.86
2022-09-28T06:13:23.035Z,96814.86
2022-09-28T06:14:26.263Z,96807.79
2022-09-28T06:15:30.833Z,96812.27
2022-09-28T06:16:34.896Z,96805.77
2022-09-28T06:17:36.637Z,96810.18
2022-09-28T06:18:56.951Z,96807.96
2022-09-28T06:20:18.626Z,96810.27
2022-09-28T06:21:31.533Z,96807.86
2022-09-28T06:22:33.320Z,96807.02
2022-09-28T06:23:40.488Z,96804.58
2022-09-28T06:24:42.681Z,96806.48
2022-09-28T06:25:44.369Z,96805.90
2022-09-28T06:26:46.043Z,96803.44
2022-09-28T06:27:59.160Z,96806.90
2022-09-28T06:29:00.947Z,96803.88
2022-09-28T06:30:03.010Z,96806.19
2022-09-28T06:31:05.383Z,96804.17
2022-09-28T06:32:09.986Z,96803.30
2022-09-28T06:33:14.994Z,96803.77
2022-09-28T06:34:18.053Z,96809.66
2022-09-28T06:35:20.562Z,96813.23
2022-09-28T06:36:22.382Z,96809.95
2022-09-28T06:37:26.070Z,96810.16
2022-09-28T06:38:27.844Z,96812.48
2022-09-28T06:39:29.891Z,96813.38
2022-09-28T06:40:33.402Z,96813.71
2022-09-28T06:41:35.148Z,96811.52
2022-09-28T06:43:10.533Z,96817.14
2022-09-28T06:44:31.586Z,96813.43
2022-09-28T06:45:53.807Z,96815.05
2022-09-28T06:47:01.220Z,96817.69
2022-09-28T06:48:31.750Z,96815.80
2022-09-28T06:49:33.542Z,96816.52
2022-09-28T06:50:44.995Z,96816.44
2022-09-28T06:51:59.174Z,96815.17
2022-09-28T06:53:56.879Z,96818.59
2022-09-28T06:55:17.103Z,96818.05
2022-09-28T06:56:22.107Z,96818.77
2022-09-28T06:57:24.238Z,96820.13
2022-09-28T06:58:28.195Z,96823.21
2022-09-28T06:59:32.412Z,96824.71
2022-09-28T07:00:37.913Z,96821.50
2022-09-28T07:01:39.591Z,96820.17
2022-09-28T07:03:21.746Z,96819.54
2022-09-28T07:04:34.782Z,96822.59
2022-09-28T07:05:56.411Z,96826.91
2022-09-28T07:07:18.328Z,96828.93
2022-09-28T07:08:38.841Z,96828.01
2022-09-28T07:09:59.132Z,96828.85
2022-09-28T07:11:15.625Z,96827.80
2022-09-28T07:12:25.398Z,96827.76
2022-09-28T07:13:53.434Z,96831.37
2022-09-28T07:14:57.640Z,96832.08
2022-09-28T07:16:01.954Z,96833.20
2022-09-28T07:17:13.533Z,96834.17
2022-09-28T07:18:18.706Z,96831.75
2022-09-28T07:19:20.471Z,96831.48
2022-09-28T07:20:22.073Z,96837.14
2022-09-28T07:21:29.621Z,96831.66
2022-09-28T07:22:42.827Z,96839.13
2022-09-28T07:23:53.518Z,96838.42
2022-09-28T07:24:57.091Z,96838.50
2022-09-28T07:26:20.355Z,96838.27
2022-09-28T07:28:13.546Z,96839.23
2022-09-28T07:29:44.620Z,96836.40
2022-09-28T07:31:33.761Z,96834.75
2022-09-28T07:32:55.053Z,96833.50
2022-09-28T07:34:04.241Z,96833.67
2022-09-28T07:35:28.102Z,96832.42
2022-09-28T07:36:34.999Z,96831.05
2022-09-28T07:37:37.590Z,96830.41
2022-09-28T07:38:39.334Z,96834.88
2022-09-28T07:40:00.498Z,96831.40
2022-09-28T07:41:14.018Z,96830.23
2022-09-28T07:42:21.295Z,96829.20
2022-09-28T07:43:23.391Z,96825.31
2022-09-28T07:44:26.852Z,96829.95
2022-09-28T07:45:30.184Z,96826.23
2022-09-28T07:46:34.095Z,96829.36
2022-09-28T07:47:40.858Z,96822.67
2022-09-28T07:48:51.755Z,96819.75
2022-09-28T07:49:59.683Z,96823.14
2022-09-28T07:51:21.327Z,96823.18
2022-09-28T07:52:50.750Z,96821.20
2022-09-28T07:54:04.240Z,96824.56
2022-09-28T07:55:23.898Z,96825.38
2022-09-28T07:56:40.852Z,96825.11
2022-09-28T07:58:01.729Z,96815.70
2022-09-28T07:59:22.066Z,96817.98
2022-09-28T08:01:10.836Z,96818.68
2022-09-28T08:02:13.951Z,96820.58
2022-09-28T08:03:18.096Z,96823.34
2022-09-28T08:04:20.544Z,96824.69
2022-09-28T08:05:22.272Z,96820.40
2022-09-28T08:06:23.918Z,96824.19
2022-09-28T08:07:26.049Z,96820.54
2022-09-28T08:08:37.837Z,96819.21
2022-09-28T08:09:40.155Z,96825.06
2022-09-28T08:11:08.473Z,96822.79
2022-09-28T08:12:22.428Z,96822.22
2022-09-28T08:13:34.889Z,96821.20
2022-09-28T08:15:17.445Z,96821.88
2022-09-28T08:16:28.149Z,96820.32
2022-09-28T08:17:47.286Z,96816.06
2022-09-28T08:18:50.117Z,96818.68
2022-09-28T08:20:10.461Z,96816.10
2022-09-28T08:21:30.514Z,96814.38
2022-09-28T08:22:32.593Z,96813.98
2022-09-28T08:23:35.186Z,96816.69
2022-09-28T08:24:37.016Z,96816.85
2022-09-28T08:25:38.778Z,96813.95
2022-09-28T08:26:43.086Z,96817.18
2022-09-28T08:27:45.729Z,96817.75
2022-09-28T08:28:47.850Z,96818.04
2022-09-28T08:30:08.888Z,96818.10
2022-09-28T08:31:15.179Z,96814.92
2022-09-28T08:33:18.008Z,96814.51
2022-09-28T08:34:41.379Z,96818.41
2022-09-28T08:36:11.600Z,96816.36
2022-09-28T08:38:03.374Z,96817.65
2022-09-28T08:39:23.391Z,96814.12
2022-09-28T08:41:04.488Z,96813.23
2022-09-28T08:42:11.123Z,96815.05
2022-09-28T08:44:25.529Z,96811.95
2022-09-28T08:46:22.713Z,96807.90
2022-09-28T08:48:07.308Z,96810.20
2022-09-28T08:49:30.430Z,96811.55
2022-09-28T08:51:50.132Z,96811.38
2022-09-28T08:53:12.258Z,96814.92
2022-09-28T08:54:46.007Z,96811.95
2022-09-28T08:55:54.942Z,96809.49
2022-09-28T08:57:14.409Z,96816.06
2022-09-28T08:58:33.390Z,96813.27
2022-09-28T08:59:47.581Z,96814.58
2022-09-28T09:00:54.618Z,96815.91
2022-09-28T09:02:03.953Z,96812.28
2022-09-28T09:03:14.836Z,96810.45
2022-09-28T09:04:19.886Z,96809.84
2022-09-28T09:06:18.273Z,96811.04
2022-09-28T09:08:22.760Z,96816.81
2022-09-28T09:09:58.883Z,96818.14
2022-09-28T09:11:44.428Z,96824.20
2022-09-28T09:13:07.559Z,96823.59
2022-09-28T09:14:27.190Z,96822.17
2022-09-28T09:15:48.764Z,96822.27
2022-09-28T09:17:44.159Z,96825.84
2022-09-28T09:19:37.258Z,96825.42
2022-09-28T09:21:39.041Z,96825.55
2022-09-28T09:22:59.013Z,96824.88
2022-09-28T09:24:18.219Z,96821.28
2022-09-28T09:25:20.261Z,96822.55
2022-09-28T09:26:39.233Z,96822.92
2022-09-28T09:28:18.392Z,96818.80
2022-09-28T09:29:22.910Z,96820.70
2022-09-28T09:30:46.303Z,96820.15
2022-09-28T09:32:03.848Z,96824.10
2022-09-28T09:33:33.666Z,96818.25
2022-09-28T09:35:31.512Z,96824.53
2022-09-28T09:37:58.255Z,96828.70
2022-09-28T09:39:32.270Z,96826.94
2022-09-28T09:40:55.199Z,96830.27
2022-09-28T09:42:35.681Z,96829.27
2022-09-28T09:44:33.563Z,96828.70
2022-09-28T09:46:16.849Z,96826.93
2022-09-28T09:47:48.512Z,96824.76
2022-09-28T09:49:06.717Z,96832.23
2022-09-28T09:50:40.610Z,96830.08
2022-09-28T09:51:54.831Z,96832.73
2022-09-28T09:53:05.618Z,96832.61
2022-09-28T09:54:26.699Z,96831.05
2022-09-28T09:55:40.422Z,96833.40
2022-09-28T09:57:22.717Z,96826.71
2022-09-28T09:58:50.174Z,96831.90
2022-09-28T10:00:16.355Z,96827.51
2022-09-28T10:01:34.642Z,96823.84
2022-09-28T10:02:53.464Z,96819.48
2022-09-28T10:04:50.899Z,96818.21
2022-09-28T10:06:05.649Z,96820.67
2022-09-28T10:07:20.661Z,96822.96
2022-09-28T10:08:26.935Z,96825.05
2022-09-28T10:09:45.911Z,96827.04
2022-09-28T10:11:15.473Z,96826.71
2022-09-28T10:12:22.088Z,96830.81
2022-09-28T10:13:24.017Z,96830.94
2022-09-28T10:14:30.014Z,96828.52
2022-09-28T10:15:42.679Z,96831.80
2022-09-28T10:16:53.103Z,96837.25
2022-09-28T10:18:39.029Z,96836.05
2022-09-28T10:20:37.010Z,96841.25
2022-09-28T10:21:51.798Z,96837.36
2022-09-28T10:23:02.232Z,96843.25
2022-09-28T10:24:04.389Z,96834.86
2022-09-28T10:25:08.939Z,96833.98
2022-09-28T10:26:25.338Z,96835.19
2022-09-28T10:27:35.115Z,96835.66
2022-09-28T10:28:48.110Z,96835.34
2022-09-28T10:29:59.187Z,96832.63
2022-09-28T10:31:41.916Z,96829.60
2022-09-28T10:32:59.107Z,96825.37
2022-09-28T10:34:05.558Z,96827.71
2022-09-28T10:35:24.645Z,96827.29
2022-09-28T10:36:38.598Z,96826.88
2022-09-28T10:37:55.190Z,96828.83
2022-09-28T10:39:45.884Z,96826.17
2022-09-28T10:40:51.250Z,96822.21
2022-09-28T10:42:13.421Z,96817.31
2022-09-28T10:43:18.914Z,96816.97
2022-09-28T10:44:22.829Z,96817.77
2022-09-28T10:45:37.416Z,96817.80
2022-09-28T10:46:39.639Z,96812.54
2022-09-28T10:47:46.034Z,96813.48
2022-09-28T10:48:58.450Z,96809.80
2022-09-28T10:50:03.686Z,96818.45
2022-09-28T10:51:07.728Z,96816.75
2022-09-28T10:52:31.113Z,96816.02
2022-09-28T10:53:36.971Z,96814.88
2022-09-28T10:54:53.177Z,96823.59
2022-09-28T10:56:22.750Z,96814.25
2022-09-28T10:57:37.196Z,96824.74
2022-09-28T10:58:42.915Z,96819.56
2022-09-28T10:59:48.087Z,96821.91
2022-09-28T11:01:26.447Z,96826.63
2022-09-28T11:02:35.997Z,96821.34
2022-09-28T11:04:08.049Z,96824.15
2022-09-28T11:05:22.787Z,96824.70
2022-09-28T11:06:36.964Z,96824.14
2022-09-28T11:07:48.300Z,96825.73
2022-09-28T11:08:59.767Z,96828.35
2022-09-28T11:10:04.094Z,96827.26
2022-09-28T11:11:09.583Z,96825.27
2022-09-28T11:12:17.867Z,96829.70
2022-09-28T11:13:19.681Z,96827.75
2022-09-28T11:14:44.625Z,96833.60
2022-09-28T11:15:51.169Z,96830.04
2022-09-28T11:17:20.416Z,96834.52
2022-09-28T11:18:31.407Z,96836.52
2022-09-28T11:19:37.094Z,96836.31
2022-09-28T11:20:44.296Z,96839.79
2022-09-28T11:21:47.113Z,96833.11
2022-09-28T11:22:53.366Z,96836.03
2022-09-28T11:23:57.217Z,96838.23
2022-09-28T11:25:22.383Z,96837.96
2022-09-28T11:26:24.902Z,96839.14
2022-09-28T11:27:28.630Z,96838.61
2022-09-28T11:28:34.440Z,96840.45
2022-09-28T11:29:43.284Z,96840.80
2022-09-28T11:31:36.189Z,96837.48
2022-09-28T11:32:45.412Z,96843.58
2022-09-28T11:34:31.034Z,96838.50
2022-09-28T11:36:03.391Z,96837.62
2022-09-28T11:37:41.758Z,96838.71
2022-09-28T11:38:55.629Z,96833.20
2022-09-28T11:40:47.961Z,96835.17
2022-09-28T11:42:02.071Z,96831.36
2022-09-28T11:43:23.963Z,96829.67
2022-09-28T11:44:44.897Z,96827.62
2022-09-28T11:46:03.715Z,96821.50
2022-09-28T11:47:29.968Z,96819.73
2022-09-28T11:48:46.155Z,96817.54
2022-09-28T11:49:58.873Z,96814.10
2022-09-28T11:51:16.691Z,96812.80
2022-09-28T11:52:30.907Z,96818.52
2022-09-28T11:53:57.020Z,96822.17
2022-09-28T11:55:06.693Z,96815.55
2022-09-28T11:56:35.234Z,96815.41
2022-09-28T11:57:42.236Z,96821.05
2022-09-28T11:58:53.196Z,96823.11
2022-09-28T12:00:10.359Z,96824.12
2022-09-28T12:01:31.252Z,96828.09
2022-09-28T12:03:12.236Z,96824.80
2022-09-28T12:04:20.007Z,96830.21
2022-09-28T12:05:31.798Z,96830.03
2022-09-28T12:07:00.078Z,96824.90
2022-09-28T12:08:19.956Z,96827.64
2022-09-28T12:09:59.988Z,96830.20
2022-09-28T12:11:32.495Z,96826.39
2022-09-28T12:13:10.180Z,96828.67
2022-09-28T12:14:23.332Z,96830.40
2022-09-28T12:15:52.821Z,96827.06
2022-09-28T12:17:25.132Z,96829.99
2022-09-28T12:19:07.349Z,96825.17
2022-09-28T12:20:30.884Z,96824.46
2022-09-28T12:21:56.480Z,96824.45
2022-09-28T12:23:15.443Z,96824.49
2022-09-28T12:24:32.235Z,96823.95
2022-09-28T12:25:46.699Z,96819.96
2022-09-28T12:27:04.790Z,96814.79
2022-09-28T12:28:32.383Z,96812.95
2022-09-28T12:29:43.487Z,96815.13
2022-09-28T12:30:48.886Z,96812.77
2022-09-28T12:32:38.530Z,96812.27
2022-09-28T12:33:45.714Z,96809.89
2022-09-28T12:34:47.540Z,96807.69
2022-09-28T12:36:26.577Z,96802.16
2022-09-28T12:38:08.828Z,96809.86
2022-09-28T12:39:56.480Z,96803.98
2022-09-28T12:40:58.929Z,96806.86
2022-09-28T12:42:42.349Z,96804.34
2022-09-28T12:44:03.877Z,96809.92
2022-09-28T12:45:05.480Z,96806.95
2022-09-28T12:46:37.252Z,96809.98
2022-09-28T12:47:57.228Z,96805.86
2022-09-28T12:49:51.565Z,96810.02
2022-09-28T12:50:56.219Z,96808.55
2022-09-28T12:52:29.684Z,96810.63
2022-09-28T12:53:50.024Z,96809.45
2022-09-28T12:55:14.224Z,96814.18
2022-09-28T12:56:35.262Z,96816.38
2022-09-28T12:57:47.748Z,96812.88
2022-09-28T12:59:00.704Z,96814.49
2022-09-28T13:00:11.609Z,96812.64
2022-09-28T13:01:32.900Z,96817.13
2022-09-28T13:02:49.575Z,96812.73
2022-09-28T13:04:07.580Z,96811.16
2022-09-28T13:05:29.231Z,96806.94
2022-09-28T13:06:37.241Z,96803.09
2022-09-28T13:08:02.593Z,96795.64
2022-09-28T13:09:17.230Z,96792.63
2022-09-28T13:10:34.075Z,96797.48
2022-09-28T13:12:04.074Z,96796.30
2022-09-28T13:13:11.608Z,96795.08
2022-09-28T13:14:49.061Z,96795.84
2022-09-28T13:16:11.920Z,96791.00
2022-09-28T13:17:32.065Z,96791.05
2022-09-28T13:19:01.595Z,96787.17
2022-09-28T13:20:21.515Z,96787.84
2022-09-28T13:21:40.922Z,96785.69
2022-09-28T13:23:15.089Z,96783.78
2022-09-28T13:24:34.084Z,96776.21
2022-09-28T13:25:41.438Z,96775.31
2022-09-28T13:26:47.362Z,96770.41
2022-09-28T13:28:01.122Z,96779.09
2022-09-28T13:29:13.055Z,96773.34
2022-09-28T13:30:19.204Z,96770.23
2022-09-28T13:31:32.465Z,96776.09
2022-09-28T13:32:38.891Z,96775.92
2022-09-28T13:33:45.485Z,96777.98
2022-09-28T13:34:50.497Z,96780.59
2022-09-28T13:35:52.116Z,96781.17
2022-09-28T13:37:20.262Z,96777.90
2022-09-28T13:38:21.802Z,96781.77
2022-09-28T13:39:52.146Z,96780.48
2022-09-28T13:41:14.164Z,96778.91
2022-09-28T13:42:52.602Z,96784.16
2022-09-28T13:44:00.239Z,96777.85
2022-09-28T13:45:21.224Z,96775.65
2022-09-28T13:46:39.828Z,96784.47
2022-09-28T13:48:11.468Z,96782.36
2022-09-28T13:50:02.789Z,96789.31
2022-09-28T13:51:32.197Z,96790.39
2022-09-28T13:52:43.453Z,96784.72
2022-09-28T13:54:00.114Z,96790.28
2022-09-28T13:55:23.633Z,96781.71
2022-09-28T13:56:36.902Z,96780.79
2022-09-28T13:57:51.979Z,96776.46
2022-09-28T13:59:02.320Z,96775.31
2022-09-28T14:00:17.434Z,96779.02
2022-09-28T14:01:26.774Z,96777.88
2022-09-28T14:02:41.115Z,96780.86
2022-09-28T14:04:09.555Z,96787.26
2022-09-28T14:05:23.131Z,96792.98
2022-09-28T14:06:31.629Z,96801.22
2022-09-28T14:07:36.363Z,96804.27
2022-09-28T14:08:45.159Z,96805.11
2022-09-28T14:09:48.168Z,96807.13
2022-09-28T14:10:55.902Z,96802.03
2022-09-28T14:11:59.211Z,96796.30
2022-09-28T14:13:03.146Z,96786.27
2022-09-28T14:14:14.109Z,96784.37
2022-09-28T14:15:37.574Z,96778.54
2022-09-28T14:16:42.084Z,96781.00
2022-09-28T14:17:43.597Z,96785.19
2022-09-28T14:18:54.554Z,96782.54
2022-09-28T14:20:10.491Z,96786.21
2022-09-28T14:21:52.690Z,96784.73
2022-09-28T14:23:27.233Z,96781.88
2022-09-28T14:24:55.537Z,96779.08